• Join FlightAware (Why Join?)
  • Login
  • US Flag 
11:10PM EDT


 

Airport Tracker/Info


-or-


 

Live Flight TrackerFlight Track Log ✈ RPA3496 ✈ 06-May-2014 ✈ KLGA - KPIT

Flight Track Log - Related Links

Times and Time Zones

All times are in EDT time to prevent confusion due to time zone crossing. See the RPA3496 flight status page for this flight to view local times or setup timezone preferences in your user account.

Time Position Orientation Groundspeed Altitude Reporting Facility
EDT Latitude Longitude Course Direction KTS MPH feet Rate Location/Type
04:07PM 40.8000 -73.8667 268° West 156 180 1,400  Level New York TRACON
04:08PM 40.8333 -73.8833 339° North 199 229 4,200 3,600 Climbing New York TRACON
04:09PM 40.8500 -73.9667 285° West 248 285 8,300 4,140 Climbing New York TRACON
04:10PM 40.8500 -74.0667 270° West 260 299 12,500 3,300 Climbing New York TRACON
04:11PM 40.7666 -74.4138 269° West  Level Estimated
04:11PM 40.8500 -74.1667 270° West 287 330 15,000  Level New York TRACON
04:12PM 40.7641 -74.5220 268° West  Level Estimated
04:12PM 40.8500 -74.2833 270° West 285 328 15,300  Level New York TRACON
04:13PM 40.8333 -74.3833 258° West 291 335 17,000 900 Climbing New York TRACON
04:14PM 40.8333 -74.5000 270° West 283 326 17,100  Climbing New York TRACON
04:15PM 40.8333 -74.6000 270° West 279 321 17,000 3,780 Descending New York TRACON
04:17PM 40.8192 -74.8239 265° West 286 329 30,000 3,900 Climbing New York Center
04:18PM 40.8133 -74.9275 266° West 292 336 30,000 -5,640 Level New York Center
04:19PM 40.8075 -75.0397 266° West 286 329 18,900 -4,440 Descending New York Center
04:20PM 40.8017 -75.1381 266° West 291 335 21,200 2,760 Climbing New York Center
04:21PM 40.7681 -75.2592 250° West 308 354 24,500 2,580 Climbing New York Center
04:22PM 40.7350 -75.3611 247° West 327 376 26,400 1,740 Climbing New York Center
04:23PM 40.6947 -75.4789 246° West 340 391 28,000 780 Climbing New York Center
04:24PM 40.6522 -75.6017 246° West 360 414 28,000  Level New York Center
04:25PM 40.6119 -75.7247 247° West 372 428 28,000  Level New York Center
04:26PM 40.5692 -75.8472 245° Southwest 372 428 28,000  Level New York Center
04:27PM 40.5214 -75.9831 245° Southwest 372 428 28,000  Level New York Center
04:28PM 40.4764 -76.1050 244° Southwest 372 428 28,000  Level New York Center
04:29PM 40.4331 -76.2328 246° West 372 428 28,000  Level New York Center
04:30PM 40.3919 -76.3575 247° West 372 428 28,000  Level New York Center
04:31PM 40.3589 -76.4828 251° West 372 428 28,000  Level New York Center
04:32PM 40.3256 -76.6081 251° West 366 421 28,000  Level New York Center
04:33PM 40.2942 -76.7333 252° West 366 421 28,000 -360 Level New York Center
04:34PM 40.2606 -76.8611 251° West 366 421 27,400 -900 Descending New York Center
04:35PM 40.2292 -76.9833 251° West 366 421 26,200 -720 Descending New York Center
04:36PM 40.1975 -77.1111 252° West 366 421 26,000 -120 Descending New York Center
04:37PM 40.1633 -77.2383 251° West 372 428 26,000  Level New York Center
04:39PM 40.1131 -77.4286 251° West 366 421 26,000  Level Cleveland Center
04:40PM 40.0800 -77.5553 251° West 366 421 26,000 -780 Level Cleveland Center
04:41PM 40.0461 -77.6797 250° West 367 422 24,500 -1,620 Descending Cleveland Center
04:42PM 40.0139 -77.7981 250° West 357 411 22,700 -1,200 Descending Cleveland Center
04:43PM 40.0217 -77.9408 274° West 328 377 22,000 -360 Descending Cleveland Center
04:44PM 40.0336 -78.0592 278° West 328 377 22,000  Level Cleveland Center
04:45PM 40.0461 -78.1739 278° West 328 377 22,000  Level Cleveland Center
04:46PM 40.0586 -78.2922 278° West 328 377 22,000  Level Cleveland Center
04:47PM 40.0717 -78.4178 278° West 343 395 22,000  Level Cleveland Center
04:48PM 40.0858 -78.5742 277° West 357 411 22,000  Level Cleveland Center
04:49PM 40.0986 -78.7008 278° West 356 410 22,000  Level Cleveland Center
04:50PM 40.1125 -78.8303 278° West 356 410 22,000 -420 Level Cleveland Center
04:51PM 40.1247 -78.9592 277° West 357 411 21,200 -1,320 Descending Cleveland Center
04:52PM 40.1372 -79.0853 277° West 355 409 19,300 -2,040 Descending Cleveland Center
04:53PM 40.1508 -79.2317 277° West 344 396 17,100 -1,800 Descending Cleveland Center
04:54PM 40.1611 -79.3358 277° West 340 391 15,600 -1,800 Descending Cleveland Center
04:55PM 40.1739 -79.4817 277° West 338 389 13,500 -1,920 Descending Cleveland Center
04:56PM 40.1847 -79.5994 277° West 331 381 11,700 -1,680 Descending Cleveland Center
04:57PM 40.1958 -79.7136 277° West 319 367 10,100 -840 Descending Cleveland Center
04:58PM 40.2356 -79.8181 297° West 320 368 10,000 -60 Descending Cleveland Center
04:59PM 40.2786 -79.9192 299° West 318 366 10,000 -240 Level Cleveland Center
05:00PM 40.3150 -80.0072 298° West 275 316 9,600 -1,500 Descending Cleveland Center
05:02PM 40.3533 -80.0981 299° West 257 296 7,000 -1,980 Descending Cleveland Center
05:03PM 40.3894 -80.1822 299° West 264 304 5,600 -1,260 Descending Cleveland Center
05:04PM 40.4161 -80.2628 294° West 255 293 4,400 -1,620 Descending Cleveland Center
05:05PM 40.4717 -80.2842 344° North 201 231 2,300 -1,560 Descending Cleveland Center
05:06PM 40.4861 -80.2544 57° Northeast 175 201 1,200 -1,080 Descending Cleveland Center
05:08PM 40.4914 -80.2327 303° West  Level Estimated